createdAt,value
2018-02-23T00:00:45.052Z,-0.85
2018-02-23T00:01:55.010Z,-0.93
2018-02-23T00:03:04.705Z,-0.94
2018-02-23T00:04:14.662Z,-0.91
2018-02-23T00:05:24.392Z,-0.89
2018-02-23T00:06:34.358Z,-0.94
2018-02-23T00:07:43.805Z,-0.97
2018-02-23T00:08:53.961Z,-1.03
2018-02-23T00:10:03.922Z,-0.99
2018-02-23T00:11:13.876Z,-0.97
2018-02-23T00:12:23.571Z,-1
2018-02-23T00:13:33.532Z,-0.99
2018-02-23T00:14:43.241Z,-0.97
2018-02-23T00:15:53.203Z,-1
2018-02-23T00:17:03.152Z,-1.03
2018-02-23T00:18:12.847Z,-1.14
2018-02-23T00:19:22.534Z,-1.03
2018-02-23T00:20:32.227Z,-1.07
2018-02-23T00:21:41.927Z,-1.07
2018-02-23T00:22:51.899Z,-1.07
2018-02-23T00:24:01.604Z,-1.01
2018-02-23T00:25:11.306Z,-1.07
2018-02-23T00:26:21.003Z,-1.11
2018-02-23T00:27:30.693Z,-1.19
2018-02-23T00:28:40.648Z,-1.18
2018-02-23T00:29:50.608Z,-1.21
2018-02-23T00:31:00.564Z,-1.22
2018-02-23T00:32:10.528Z,-1.29
2018-02-23T00:33:20.227Z,-1.25
2018-02-23T00:34:30.184Z,-1.35
2018-02-23T00:35:40.141Z,-1.39
2018-02-23T00:36:50.288Z,-1.35
2018-02-23T00:37:59.981Z,-1.42
2018-02-23T00:39:09.932Z,-1.43
2018-02-23T00:40:19.895Z,-1.58
2018-02-23T00:41:29.840Z,-1.56
2018-02-23T00:42:39.560Z,-1.54
2018-02-23T00:43:49.511Z,-1.53
2018-02-23T00:44:58.942Z,-1.53
2018-02-23T00:46:08.951Z,-1.57
2018-02-23T00:47:18.653Z,-1.58
2018-02-23T00:48:28.080Z,-1.68
2018-02-23T00:49:37.782Z,-1.72
2018-02-23T00:50:47.741Z,-1.75
2018-02-23T00:51:57.709Z,-1.71
2018-02-23T00:53:07.662Z,-1.75
2018-02-23T00:54:17.615Z,-1.86
2018-02-23T00:55:27.565Z,-1.81
2018-02-23T00:56:37.510Z,-1.75
2018-02-23T00:57:46.943Z,-1.89
2018-02-23T00:58:56.902Z,-1.9
2018-02-23T01:00:06.589Z,-1.94
2018-02-23T01:01:16.338Z,-1.94
2018-02-23T01:02:26.034Z,-1.93
2018-02-23T01:03:35.982Z,-1.94
2018-02-23T01:04:45.954Z,-1.96
2018-02-23T01:05:55.141Z,-2
2018-02-23T01:07:04.843Z,-1.93
2018-02-23T01:08:14.807Z,-1.96
2018-02-23T01:09:24.244Z,-1.99
2018-02-23T01:10:33.936Z,-1.97
2018-02-23T01:11:43.924Z,-2.02
2018-02-23T01:12:53.881Z,-2.05
2018-02-23T01:14:03.054Z,-2.05
2018-02-23T01:15:12.753Z,-2.07
2018-02-23T01:16:22.448Z,-2.1
2018-02-23T01:17:32.405Z,-2.23
2018-02-23T01:18:42.113Z,-2.13
2018-02-23T01:19:51.802Z,-2.18
2018-02-23T01:21:01.762Z,-2.15
2018-02-23T01:22:10.931Z,-2.22
2018-02-23T01:23:20.109Z,-2.22
2018-02-23T01:24:29.807Z,-2.22
2018-02-23T01:25:39.491Z,-2.28
2018-02-23T01:26:49.182Z,-2.26
2018-02-23T01:27:59.126Z,-2.32
2018-02-23T01:29:08.812Z,-2.36
2018-02-23T01:30:18.765Z,-2.39
2018-02-23T01:31:28.717Z,-2.44
2018-02-23T01:32:38.146Z,-2.4
2018-02-23T01:33:47.836Z,-2.45
2018-02-23T01:34:57.528Z,-2.4
2018-02-23T01:36:07.218Z,-2.48
2018-02-23T01:37:16.906Z,-2.4
2018-02-23T01:38:26.342Z,-2.45
2018-02-23T01:39:36.296Z,-2.48
2018-02-23T01:40:46.248Z,-2.51
2018-02-23T01:41:56.202Z,-2.52
2018-02-23T01:43:06.158Z,-2.52
2018-02-23T01:44:15.588Z,-2.5
2018-02-23T01:45:25.289Z,-2.48
2018-02-23T01:46:35.246Z,-2.5
2018-02-23T01:47:45.200Z,-2.58
2018-02-23T01:48:54.890Z,-2.57
2018-02-23T01:50:04.595Z,-2.58
2018-02-23T01:51:14.298Z,-2.57
2018-02-23T01:52:24.001Z,-2.55
2018-02-23T01:53:33.966Z,-2.47
2018-02-23T01:54:43.657Z,-2.57
2018-02-23T01:55:53.413Z,-2.66
2018-02-23T01:57:02.852Z,-2.75
2018-02-23T01:58:12.555Z,-2.66
2018-02-23T01:59:22.005Z,-2.75
2018-02-23T02:00:31.707Z,-2.66
2018-02-23T02:01:41.146Z,-2.76
2018-02-23T02:02:50.892Z,-2.75
2018-02-23T02:04:00.843Z,-2.73
2018-02-23T02:05:10.012Z,-2.73
2018-02-23T02:06:19.703Z,-2.76
2018-02-23T02:07:29.391Z,-2.75
2018-02-23T02:08:38.830Z,-2.81
2018-02-23T02:09:48.524Z,-2.8
2018-02-23T02:10:58.473Z,-2.75
2018-02-23T02:12:08.171Z,-2.87
2018-02-23T02:13:17.869Z,-2.84
2018-02-23T02:14:27.572Z,-2.8
2018-02-23T02:15:37.523Z,-2.93
2018-02-23T02:16:47.487Z,-2.9
2018-02-23T02:17:57.189Z,-2.94
2018-02-23T02:19:06.622Z,-2.91
2018-02-23T02:20:16.318Z,-2.9
2018-02-23T02:21:26.273Z,-2.98
2018-02-23T02:22:36.226Z,-2.91
2018-02-23T02:23:46.184Z,-2.96
2018-02-23T02:24:55.368Z,-2.94
2018-02-23T02:26:05.330Z,-2.99
2018-02-23T02:27:15.276Z,-2.99
2018-02-23T02:28:25.268Z,-2.93
2018-02-23T02:29:34.957Z,-2.98
2018-02-23T02:30:44.393Z,-2.98
2018-02-23T02:31:54.361Z,-2.99
2018-02-23T02:33:03.793Z,-2.99
2018-02-23T02:34:12.983Z,-2.93
2018-02-23T02:35:22.685Z,-2.99
2018-02-23T02:36:32.650Z,-3.05
2018-02-23T02:37:42.406Z,-3.05
2018-02-23T02:38:52.385Z,-3.01
2018-02-23T02:40:01.824Z,-3.05
2018-02-23T02:41:11.512Z,-3.11
2018-02-23T02:42:21.488Z,-3.05
2018-02-23T02:43:31.198Z,-3.17
2018-02-23T02:44:40.911Z,-3.19
2018-02-23T02:45:50.630Z,-3.25
2018-02-23T02:47:00.076Z,-3.2
2018-02-23T02:48:10.039Z,-3.25
2018-02-23T02:49:19.216Z,-3.26
2018-02-23T02:50:28.951Z,-3.3
2018-02-23T02:51:38.381Z,-3.29
2018-02-23T02:52:47.564Z,-3.37
2018-02-23T02:53:57.517Z,-3.32
2018-02-23T02:55:07.220Z,-3.41
2018-02-23T02:56:16.931Z,-3.41
2018-02-23T02:57:26.632Z,-3.37
2018-02-23T02:58:36.073Z,-3.36
2018-02-23T02:59:45.248Z,-3.32
2018-02-23T03:00:54.682Z,-3.44
2018-02-23T03:02:04.362Z,-3.51
2018-02-23T03:03:13.794Z,-3.5
2018-02-23T03:04:23.773Z,-3.4
2018-02-23T03:05:33.205Z,-3.48
2018-02-23T03:06:42.645Z,-3.46
2018-02-23T03:07:52.884Z,-3.56
2018-02-23T03:09:02.585Z,-3.58
2018-02-23T03:10:12.546Z,-3.62
2018-02-23T03:11:22.501Z,-3.62
2018-02-23T03:12:32.443Z,-3.64
2018-02-23T03:13:42.146Z,-3.64
2018-02-23T03:14:52.109Z,-3.58
2018-02-23T03:16:02.117Z,-3.59
2018-02-23T03:17:11.544Z,-3.62
2018-02-23T03:18:21.496Z,-3.62
2018-02-23T03:19:31.190Z,-3.69
2018-02-23T03:20:41.136Z,-3.68
2018-02-23T03:21:50.831Z,-3.78
2018-02-23T03:23:00.781Z,-3.75
2018-02-23T03:24:10.495Z,-3.78
2018-02-23T03:25:19.678Z,-3.66
2018-02-23T03:26:29.121Z,-3.66
2018-02-23T03:27:39.072Z,-3.75
2018-02-23T03:28:49.040Z,-3.75
2018-02-23T03:29:58.748Z,-3.83
2018-02-23T03:31:08.193Z,-3.75
2018-02-23T03:32:18.156Z,-3.78
2018-02-23T03:33:27.611Z,-3.81
2018-02-23T03:34:37.313Z,-3.78
2018-02-23T03:35:47.271Z,-3.83
2018-02-23T03:36:57.225Z,-3.85
2018-02-23T03:38:07.175Z,-3.81
2018-02-23T03:39:16.610Z,-3.83
2018-02-23T03:40:26.313Z,-3.77
2018-02-23T03:41:36.013Z,-3.85
2018-02-23T03:42:45.505Z,-3.83
2018-02-23T03:43:55.471Z,-3.81
2018-02-23T03:45:05.170Z,-3.87
2018-02-23T03:46:15.105Z,-3.8
2018-02-23T03:47:25.053Z,-3.85
2018-02-23T03:48:35.006Z,-3.95
2018-02-23T03:49:44.951Z,-3.88
2018-02-23T03:50:54.642Z,-3.94
2018-02-23T03:52:04.326Z,-3.94
2018-02-23T03:53:14.015Z,-3.9
2018-02-23T03:54:23.712Z,-4.04
2018-02-23T03:55:33.674Z,-4.01
2018-02-23T03:56:43.197Z,-4.05
2018-02-23T03:57:52.957Z,-4.02
2018-02-23T03:59:02.659Z,-4.06
2018-02-23T04:00:11.833Z,-4.04
2018-02-23T04:01:21.529Z,-4.04
2018-02-23T04:02:31.229Z,-4.04
2018-02-23T04:03:40.923Z,-4.04
2018-02-23T04:04:49.831Z,-3.99
2018-02-23T04:05:59.524Z,-4.01
2018-02-23T04:07:09.464Z,-4.08
2018-02-23T04:08:19.418Z,-4.06
2018-02-23T04:09:29.372Z,-4.13
2018-02-23T04:10:39.334Z,-4.2
2018-02-23T04:11:49.286Z,-4.2
2018-02-23T04:12:59.251Z,-4.34
2018-02-23T04:14:09.206Z,-4.34
2018-02-23T04:15:18.897Z,-4.24
2018-02-23T04:16:28.584Z,-4.22
2018-02-23T04:17:38.541Z,-4.26
2018-02-23T04:18:48.015Z,-4.23
2018-02-23T04:19:57.710Z,-4.27
2018-02-23T04:21:07.143Z,-4.35
2018-02-23T04:22:16.839Z,-4.3
2018-02-23T04:23:26.848Z,-4.33
2018-02-23T04:24:36.797Z,-4.16
2018-02-23T04:25:46.749Z,-4.31
2018-02-23T04:26:56.736Z,-4.16
2018-02-23T04:28:06.690Z,-4.08
2018-02-23T04:29:16.651Z,-4.14
2018-02-23T04:30:26.350Z,-4.17
2018-02-23T04:31:36.300Z,-4.09
2018-02-23T04:32:46.247Z,-4.33
2018-02-23T04:33:55.934Z,-4.33
2018-02-23T04:35:05.643Z,-4.31
2018-02-23T04:36:14.826Z,-4.23
2018-02-23T04:37:24.260Z,-4.33
2018-02-23T04:38:34.217Z,-4.31
2018-02-23T04:39:43.901Z,-4.35
2018-02-23T04:40:53.095Z,-4.38
2018-02-23T04:42:02.785Z,-4.4
2018-02-23T04:43:12.741Z,-4.4
2018-02-23T04:44:22.701Z,-4.37
2018-02-23T04:45:32.390Z,-4.35
2018-02-23T04:46:41.825Z,-4.38
2018-02-23T04:47:51.517Z,-4.4
2018-02-23T04:49:01.467Z,-4.37
2018-02-23T04:50:11.408Z,-4.42
2018-02-23T04:51:21.091Z,-4.47
2018-02-23T04:52:30.262Z,-4.41
2018-02-23T04:53:39.961Z,-4.37
2018-02-23T04:54:49.906Z,-4.4
2018-02-23T04:55:59.684Z,-4.45
2018-02-23T04:57:09.386Z,-4.44
2018-02-23T04:58:19.088Z,-4.49
2018-02-23T04:59:28.804Z,-4.55
2018-02-23T05:00:38.756Z,-4.53
2018-02-23T05:01:48.471Z,-4.45
2018-02-23T05:02:58.177Z,-4.61
2018-02-23T05:04:08.116Z,-4.53
2018-02-23T05:05:17.811Z,-4.62
2018-02-23T05:06:27.509Z,-4.59
2018-02-23T05:07:37.199Z,-4.58
2018-02-23T05:08:47.147Z,-4.63
2018-02-23T05:09:56.869Z,-4.61
2018-02-23T05:11:06.828Z,-4.49
2018-02-23T05:12:15.997Z,-4.67
2018-02-23T05:13:25.689Z,-4.59
2018-02-23T05:14:35.634Z,-4.67
2018-02-23T05:15:45.585Z,-4.63
2018-02-23T05:16:55.284Z,-4.71
2018-02-23T05:18:04.731Z,-4.62
2018-02-23T05:19:14.688Z,-4.62
2018-02-23T05:20:24.645Z,-4.63
2018-02-23T05:21:34.344Z,-4.56
2018-02-23T05:22:44.058Z,-4.69
2018-02-23T05:23:53.491Z,-4.62
2018-02-23T05:25:02.940Z,-4.61
2018-02-23T05:26:12.896Z,-4.67
2018-02-23T05:27:22.585Z,-4.79
2018-02-23T05:28:32.534Z,-4.67
2018-02-23T05:29:42.493Z,-4.74
2018-02-23T05:30:52.242Z,-4.71
2018-02-23T05:32:02.205Z,-4.7
2018-02-23T05:33:12.164Z,-4.77
2018-02-23T05:34:22.111Z,-4.74
2018-02-23T05:35:31.544Z,-4.81
2018-02-23T05:36:41.265Z,-4.84
2018-02-23T05:37:50.959Z,-4.83
2018-02-23T05:39:00.912Z,-4.87
2018-02-23T05:40:10.352Z,-4.84
2018-02-23T05:41:20.313Z,-4.84
2018-02-23T05:42:30.277Z,-4.81
2018-02-23T05:43:40.285Z,-4.83
2018-02-23T05:44:50.257Z,-4.83
2018-02-23T05:46:00.236Z,-4.91
2018-02-23T05:47:09.695Z,-4.83
2018-02-23T05:48:19.395Z,-4.87
2018-02-23T05:49:29.342Z,-4.87
2018-02-23T05:50:38.788Z,-4.95
2018-02-23T05:51:48.221Z,-4.95
2018-02-23T05:52:57.922Z,-4.98
2018-02-23T05:54:07.865Z,-5.01
2018-02-23T05:55:17.809Z,-5
2018-02-23T05:56:27.248Z,-5
2018-02-23T05:57:37.218Z,-5.02
2018-02-23T05:58:46.912Z,-4.98
2018-02-23T05:59:56.359Z,-5.02
2018-02-23T06:01:06.227Z,-5.13
2018-02-23T06:02:16.176Z,-5.08
2018-02-23T06:03:25.343Z,-5.06
2018-02-23T06:04:35.541Z,-5.09
2018-02-23T06:05:45.241Z,-5.13
2018-02-23T06:06:54.678Z,-5.16
2018-02-23T06:08:04.114Z,-5.16
2018-02-23T06:09:14.065Z,-5.09
2018-02-23T06:10:24.027Z,-5.09
2018-02-23T06:11:33.716Z,-5.2
2018-02-23T06:12:43.667Z,-5.13
2018-02-23T06:13:53.628Z,-5.1
2018-02-23T06:15:03.345Z,-5.13
2018-02-23T06:16:13.036Z,-5.09
2018-02-23T06:17:22.743Z,-5.23
2018-02-23T06:18:32.444Z,-5.2
2018-02-23T06:19:41.875Z,-5.27
2018-02-23T06:20:51.314Z,-5.16
2018-02-23T06:22:01.012Z,-5.17
2018-02-23T06:23:10.971Z,-5.23
2018-02-23T06:24:20.932Z,-5.16
2018-02-23T06:25:30.873Z,-5.27
2018-02-23T06:26:40.842Z,-5.19
2018-02-23T06:27:50.546Z,-5.25
2018-02-23T06:28:59.984Z,-5.17
2018-02-23T06:30:09.942Z,-5.13
2018-02-23T06:31:19.655Z,-5.3
2018-02-23T06:32:29.368Z,-5.28
2018-02-23T06:33:39.068Z,-5.3
2018-02-23T06:34:49.026Z,-5.23
2018-02-23T06:35:58.723Z,-5.13
2018-02-23T06:37:08.680Z,-5.23
2018-02-23T06:38:18.376Z,-5.2
2018-02-23T06:39:28.082Z,-5.27
2018-02-23T06:40:37.785Z,-5.2
2018-02-23T06:41:47.732Z,-5.3
2018-02-23T06:42:57.420Z,-5.17
2018-02-23T06:44:07.124Z,-5.25
2018-02-23T06:45:16.829Z,-5.16
2018-02-23T06:46:26.809Z,-5.16
2018-02-23T06:47:36.778Z,-5.17
2018-02-23T06:48:46.475Z,-5.1
2018-02-23T06:49:55.911Z,-5.17
2018-02-23T06:51:05.613Z,-5.09
2018-02-23T06:52:15.304Z,-5.1
2018-02-23T06:53:25.018Z,-5.16
2018-02-23T06:54:34.761Z,-5.23
2018-02-23T06:55:44.448Z,-5.08
2018-02-23T06:56:54.426Z,-5.2
2018-02-23T06:58:04.397Z,-5.17
2018-02-23T06:59:14.383Z,-5.16
2018-02-23T07:00:24.136Z,-5.19
2018-02-23T07:01:33.582Z,-5.2
2018-02-23T07:02:43.020Z,-5.08
2018-02-23T07:03:52.801Z,-5.13
2018-02-23T07:05:02.253Z,-5.12
2018-02-23T07:06:12.225Z,-5.09
2018-02-23T07:07:22.204Z,-5
2018-02-23T07:08:31.921Z,-5.09
2018-02-23T07:09:41.623Z,-5.1
2018-02-23T07:10:51.621Z,-5
2018-02-23T07:12:01.369Z,-5.1
2018-02-23T07:13:11.320Z,-5.06
2018-02-23T07:14:21.018Z,-4.98
2018-02-23T07:15:30.706Z,-5.09
2018-02-23T07:16:40.679Z,-5.02
2018-02-23T07:17:50.325Z,-5.01
2018-02-23T07:19:00.026Z,-4.98
2018-02-23T07:20:09.753Z,-5
2018-02-23T07:21:19.465Z,-4.95
2018-02-23T07:22:29.154Z,-4.91
2018-02-23T07:23:38.866Z,-4.88
2018-02-23T07:24:48.572Z,-4.9
2018-02-23T07:25:58.533Z,-4.87
2018-02-23T07:27:08.547Z,-4.81
2018-02-23T07:28:18.009Z,-4.81
2018-02-23T07:29:27.487Z,-4.73
2018-02-23T07:30:37.222Z,-4.77
2018-02-23T07:31:46.728Z,-4.73
2018-02-23T07:32:56.235Z,-4.7
2018-02-23T07:34:05.936Z,-4.74
2018-02-23T07:35:15.371Z,-4.74
2018-02-23T07:36:25.081Z,-4.79
2018-02-23T07:37:35.073Z,-4.63
2018-02-23T07:38:44.793Z,-4.63
2018-02-23T07:39:54.510Z,-4.61
2018-02-23T07:41:04.474Z,-4.59
2018-02-23T07:42:14.438Z,-4.52
2018-02-23T07:43:24.405Z,-4.58
2018-02-23T07:44:33.874Z,-4.56
2018-02-23T07:45:43.403Z,-4.52
2018-02-23T07:46:52.883Z,-4.45
2018-02-23T07:48:02.885Z,-4.47
2018-02-23T07:49:12.382Z,-4.38
2018-02-23T07:50:22.383Z,-4.44
2018-02-23T07:51:31.909Z,-4.38
2018-02-23T07:52:41.903Z,-4.34
2018-02-23T07:53:51.618Z,-4.33
2018-02-23T07:55:01.572Z,-4.33
2018-02-23T07:56:11.536Z,-4.19
2018-02-23T07:57:21.520Z,-4.19
2018-02-23T07:58:31.219Z,-4.14
2018-02-23T07:59:40.417Z,-4.09
2018-02-23T08:00:50.149Z,-3.99
2018-02-23T08:01:59.864Z,-4.12
2018-02-23T08:03:09.612Z,-3.99
2018-02-23T08:04:19.591Z,-4.02
2018-02-23T08:05:29.339Z,-4.02
2018-02-23T08:06:39.350Z,-3.99
2018-02-23T08:07:49.339Z,-4.01
2018-02-23T08:08:59.397Z,-3.96
2018-02-23T08:10:09.416Z,-3.94
2018-02-23T08:11:19.425Z,-3.96
2018-02-23T08:12:29.150Z,-3.9
2018-02-23T08:13:39.134Z,-3.83
2018-02-23T08:14:48.890Z,-3.78
2018-02-23T08:15:58.616Z,-3.66
2018-02-23T08:17:08.348Z,-3.64
2018-02-23T08:18:18.049Z,-3.41
2018-02-23T08:19:27.781Z,-3.36
2018-02-23T08:20:37.720Z,-3.2
2018-02-23T08:21:47.483Z,-2.98
2018-02-23T08:22:57.458Z,-2.81
2018-02-23T08:24:06.928Z,-2.72
2018-02-23T08:25:16.664Z,-2.54
2018-02-23T08:26:26.659Z,-2.55
2018-02-23T08:27:36.150Z,-2.48
2018-02-23T08:28:45.868Z,-2.44
2018-02-23T08:29:55.574Z,-2.33
2018-02-23T08:31:05.559Z,-2.2
2018-02-23T08:32:15.037Z,-2.25
2018-02-23T08:33:25.004Z,-2.22
2018-02-23T08:34:34.982Z,-2.11
2018-02-23T08:35:44.707Z,-2.2
2018-02-23T08:36:54.653Z,-1.99
2018-02-23T08:38:04.616Z,-2
2018-02-23T08:39:14.601Z,-1.89
2018-02-23T08:40:24.593Z,-1.76
2018-02-23T08:41:34.297Z,-1.72
2018-02-23T08:42:44.271Z,-1.51
2018-02-23T08:43:53.456Z,-1.46
2018-02-23T08:45:03.164Z,-1.56
2018-02-23T08:46:13.016Z,-1.57
2018-02-23T08:47:22.780Z,-1.6
2018-02-23T08:48:32.514Z,-1.57
2018-02-23T08:49:42.029Z,-1.56
2018-02-23T08:50:52.013Z,-1.56
2018-02-23T08:52:01.844Z,-1.4
2018-02-23T08:53:11.640Z,-1.29
2018-02-23T08:54:21.175Z,-1.15
2018-02-23T08:55:31.038Z,-1.06
2018-02-23T08:56:40.737Z,-0.94
2018-02-23T08:57:50.771Z,-0.77
2018-02-23T08:59:00.542Z,-0.69
2018-02-23T09:00:10.242Z,-0.57
2018-02-23T09:01:20.033Z,-0.6
2018-02-23T09:02:29.787Z,-0.51
2018-02-23T09:03:39.204Z,-0.31
2018-02-23T09:04:49.289Z,-0.27
2018-02-23T09:05:58.454Z,-0.27
2018-02-23T09:07:07.849Z,-0.15
2018-02-23T09:08:17.544Z,-0.18
2018-02-23T09:09:27.214Z,-0.07
2018-02-23T09:10:37.186Z,-0.05
2018-02-23T09:11:46.854Z,0.24
2018-02-23T09:12:56.499Z,0.39
2018-02-23T09:14:06.456Z,0.56
2018-02-23T09:15:16.147Z,0.45
2018-02-23T09:16:25.312Z,0.42
2018-02-23T09:17:34.808Z,0.39
2018-02-23T09:18:44.573Z,0.61
2018-02-23T09:19:54.374Z,0.73
2018-02-23T09:21:04.335Z,0.7
2018-02-23T09:22:13.533Z,1.04
2018-02-23T09:23:23.248Z,1.09
2018-02-23T09:24:32.706Z,1.03
2018-02-23T09:25:42.732Z,0.95
2018-02-23T09:26:52.704Z,0.86
2018-02-23T09:28:02.430Z,0.66
2018-02-23T09:29:12.415Z,0.42
2018-02-23T09:30:22.405Z,0.39
2018-02-23T09:31:32.449Z,0.37
2018-02-23T09:32:42.426Z,0.59
2018-02-23T09:33:52.140Z,0.67
2018-02-23T09:35:01.866Z,0.78
2018-02-23T09:36:11.592Z,0.82
2018-02-23T09:37:21.562Z,0.76
2018-02-23T09:38:31.515Z,0.68
2018-02-23T09:39:40.973Z,0.85
2018-02-23T09:40:50.684Z,0.52
2018-02-23T09:42:00.456Z,0.59
2018-02-23T09:43:10.160Z,0.67
2018-02-23T09:44:19.613Z,1.1
2018-02-23T09:45:29.590Z,1.09
2018-02-23T09:46:39.548Z,1.21
2018-02-23T09:47:49.273Z,1.36
2018-02-23T09:48:59.249Z,1.32
2018-02-23T09:50:09.067Z,1.2
2018-02-23T09:51:18.905Z,1.27
2018-02-23T09:52:28.342Z,1.24
2018-02-23T09:53:38.314Z,1.16
2018-02-23T09:54:48.033Z,1.13
2018-02-23T09:55:57.538Z,1.27
2018-02-23T09:57:07.530Z,1.36
2018-02-23T09:58:17.519Z,0.99
2018-02-23T09:59:27.241Z,0.81
2018-02-23T10:00:37.004Z,1.03
2018-02-23T10:01:46.977Z,0.96
2018-02-23T10:02:56.705Z,1.09
2018-02-23T10:04:06.423Z,1.24
2018-02-23T10:05:16.127Z,1.48
2018-02-23T10:06:26.152Z,1.66
2018-02-23T10:07:35.863Z,1.84
2018-02-23T10:08:45.898Z,1.67
2018-02-23T10:09:55.894Z,1.63
2018-02-23T10:11:04.843Z,1.56
2018-02-23T10:12:14.842Z,1.46
2018-02-23T10:13:24.825Z,1.48
2018-02-23T10:14:34.544Z,1.39
2018-02-23T10:15:44.263Z,1.12
2018-02-23T10:16:53.973Z,1.18
2018-02-23T10:18:02.899Z,1.28
2018-02-23T10:19:12.622Z,1.36
2018-02-23T10:20:22.602Z,1.79
2018-02-23T10:21:32.586Z,2.23
2018-02-23T10:22:42.288Z,2.41
2018-02-23T10:23:52.239Z,2.59
2018-02-23T10:25:01.692Z,2.88
2018-02-23T10:26:11.563Z,3.19
2018-02-23T10:27:21.533Z,3.41
2018-02-23T10:28:31.002Z,3.49
2018-02-23T10:29:40.715Z,3.36
2018-02-23T10:30:50.163Z,3.33
2018-02-23T10:32:00.148Z,3.46
2018-02-23T10:33:10.145Z,3.84
2018-02-23T10:34:20.145Z,4.02
2018-02-23T10:35:29.851Z,3.89
2018-02-23T10:36:39.330Z,3.96
2018-02-23T10:37:49.077Z,4.02
2018-02-23T10:38:58.816Z,3.94
2018-02-23T10:40:08.272Z,3.89
2018-02-23T10:41:18.272Z,3.89
2018-02-23T10:42:27.998Z,3.86
2018-02-23T10:43:37.711Z,3.78
2018-02-23T10:44:47.171Z,3.49
2018-02-23T10:45:56.886Z,3.21
2018-02-23T10:47:06.875Z,3.53
2018-02-23T10:48:16.872Z,3.96
2018-02-23T10:49:26.602Z,4.36
2018-02-23T10:50:36.329Z,4.49
2018-02-23T10:51:46.071Z,4.36
2018-02-23T10:52:55.591Z,4.22
2018-02-23T10:54:05.307Z,4.24
2018-02-23T10:55:15.285Z,3.82
2018-02-23T10:56:25.006Z,3.99
2018-02-23T10:57:34.506Z,3.95
2018-02-23T10:58:44.477Z,3.89
2018-02-23T10:59:54.188Z,3.96
2018-02-23T11:01:03.642Z,4.16
2018-02-23T11:02:13.412Z,4.39
2018-02-23T11:03:23.377Z,4.5
2018-02-23T11:04:33.090Z,4.94
2018-02-23T11:05:42.555Z,5.18
2018-02-23T11:06:52.275Z,5.29
2018-02-23T11:08:02.249Z,5.49
2018-02-23T11:09:12.235Z,5.55
2018-02-23T11:10:21.958Z,5.65
2018-02-23T11:11:31.691Z,5.76
2018-02-23T11:12:41.680Z,5.74
2018-02-23T11:13:51.406Z,5.97
2018-02-23T11:15:01.120Z,5.72
2018-02-23T11:16:11.108Z,5.87
2018-02-23T11:17:20.621Z,5.72
2018-02-23T11:18:30.102Z,5.74
2018-02-23T11:19:40.178Z,5.46
2018-02-23T11:20:50.158Z,5.58
2018-02-23T11:22:00.124Z,5.26
2018-02-23T11:23:09.588Z,4.61
2018-02-23T11:24:19.328Z,4.58
2018-02-23T11:25:29.311Z,4.36
2018-02-23T11:26:39.033Z,4.39
2018-02-23T11:27:49.016Z,4.71
2018-02-23T11:28:58.742Z,4.53
2018-02-23T11:30:08.485Z,4.61
2018-02-23T11:31:17.941Z,4.84
2018-02-23T11:32:27.409Z,4.9
2018-02-23T11:33:37.385Z,5.04
2018-02-23T11:34:47.358Z,4.98
2018-02-23T11:35:57.064Z,4.84
2018-02-23T11:37:06.526Z,5.13
2018-02-23T11:38:16.251Z,5.41
2018-02-23T11:39:25.972Z,5.55
2018-02-23T11:40:35.695Z,5.54
2018-02-23T11:41:45.419Z,5.56
2018-02-23T11:42:55.134Z,5.95
2018-02-23T11:44:05.102Z,5.97
2018-02-23T11:45:14.815Z,6.28
2018-02-23T11:46:25.047Z,6.65
2018-02-23T11:47:35.016Z,6.54
2018-02-23T11:48:44.999Z,6.26
2018-02-23T11:49:54.990Z,6.01
2018-02-23T11:51:04.456Z,6.38
2018-02-23T11:52:14.439Z,6.67
2018-02-23T11:53:24.419Z,6.57
2018-02-23T11:54:34.115Z,6.89
2018-02-23T11:55:43.873Z,6.56
2018-02-23T11:56:52.792Z,5.91
2018-02-23T11:58:02.531Z,5.8
2018-02-23T11:59:12.497Z,5.74
2018-02-23T12:00:21.950Z,5.98
2018-02-23T12:01:31.645Z,6.2
2018-02-23T12:02:41.093Z,6.29
2018-02-23T12:03:51.302Z,6.64
2018-02-23T12:05:00.995Z,6.86
2018-02-23T12:06:10.712Z,7.28
2018-02-23T12:07:19.917Z,7.59
2018-02-23T12:08:29.886Z,7.33
2018-02-23T12:09:39.605Z,7.21
2018-02-23T12:10:49.591Z,7
2018-02-23T12:11:59.319Z,7.14
2018-02-23T12:13:09.306Z,6.96
2018-02-23T12:14:19.283Z,6.62
2018-02-23T12:15:28.501Z,6.35
2018-02-23T12:16:38.259Z,6.62
2018-02-23T12:17:47.997Z,7.04
2018-02-23T12:18:57.688Z,7.1
2018-02-23T12:20:07.656Z,6.59
2018-02-23T12:21:17.661Z,6.06
2018-02-23T12:22:27.572Z,6.16
2018-02-23T12:23:37.582Z,6.09
2018-02-23T12:24:47.554Z,6.17
2018-02-23T12:25:57.562Z,5.95
2018-02-23T12:27:06.764Z,5.41
2018-02-23T12:28:16.478Z,5.18
2018-02-23T12:29:26.216Z,5.13
2018-02-23T12:30:35.416Z,5.29
2018-02-23T12:31:45.161Z,5.65
2018-02-23T12:32:54.898Z,5.76
2018-02-23T12:34:04.624Z,5.95
2018-02-23T12:35:14.383Z,6.13
2018-02-23T12:36:24.373Z,5.84
2018-02-23T12:37:34.383Z,5.94
2018-02-23T12:38:44.389Z,5.59
2018-02-23T12:39:54.098Z,5.22
2018-02-23T12:41:04.081Z,5.61
2018-02-23T12:42:14.063Z,5.88
2018-02-23T12:43:24.048Z,6.17
2018-02-23T12:44:34.064Z,6.36
2018-02-23T12:45:43.855Z,6.29
2018-02-23T12:46:53.785Z,6.25
2018-02-23T12:48:03.559Z,6.06
2018-02-23T12:49:13.586Z,6.35
2018-02-23T12:50:23.352Z,6.64
2018-02-23T12:51:33.322Z,6.78
2018-02-23T12:52:43.300Z,6.57
2018-02-23T12:53:53.268Z,6.36
2018-02-23T12:55:02.989Z,6.28
2018-02-23T12:56:12.446Z,6.68
2018-02-23T12:57:22.175Z,6.41
2018-02-23T12:58:32.164Z,6.26
2018-02-23T12:59:42.163Z,6.59
2018-02-23T13:00:51.930Z,6.54
2018-02-23T13:02:01.380Z,6.72
2018-02-23T13:03:11.351Z,7.15
2018-02-23T13:04:21.329Z,7.5
2018-02-23T13:05:31.067Z,7.29
2018-02-23T13:06:40.803Z,6.57
2018-02-23T13:07:50.835Z,6.01
2018-02-23T13:09:00.803Z,5.87
2018-02-23T13:10:10.817Z,5.36
2018-02-23T13:11:20.808Z,5.13
2018-02-23T13:12:30.809Z,5.58
2018-02-23T13:13:40.793Z,5.64
2018-02-23T13:14:50.803Z,5.9
2018-02-23T13:16:00.817Z,5.79
2018-02-23T13:17:10.272Z,5.98
2018-02-23T13:18:19.991Z,6.36
2018-02-23T13:19:30.003Z,6.39
2018-02-23T13:20:40.007Z,5.91
2018-02-23T13:21:49.724Z,5.81
2018-02-23T13:22:59.473Z,5.56
2018-02-23T13:24:09.220Z,5.29
2018-02-23T13:25:18.933Z,5.44
2018-02-23T13:26:28.471Z,5.76
2018-02-23T13:27:37.944Z,6.16
2018-02-23T13:28:47.957Z,6.41
2018-02-23T13:29:57.952Z,6.65
2018-02-23T13:31:07.748Z,6.57
2018-02-23T13:32:17.512Z,6.47
2018-02-23T13:33:27.241Z,6.71
2018-02-23T13:34:37.252Z,6.86
2018-02-23T13:35:47.017Z,7.19
2018-02-23T13:36:56.770Z,7.46
2018-02-23T13:38:06.259Z,7.4
2018-02-23T13:39:16.305Z,7.1
2018-02-23T13:40:26.307Z,7.21
2018-02-23T13:41:36.053Z,7.05
2018-02-23T13:42:45.778Z,7
2018-02-23T13:43:55.231Z,7.01
2018-02-23T13:45:04.979Z,7.04
2018-02-23T13:46:14.704Z,7.18
2018-02-23T13:47:24.437Z,7.31
2018-02-23T13:48:34.166Z,7.26
2018-02-23T13:49:43.894Z,7.33
2018-02-23T13:50:53.388Z,6.86
2018-02-23T13:52:03.384Z,6.26
2018-02-23T13:53:13.417Z,6.68
2018-02-23T13:54:27.593Z,6.97
2018-02-23T13:55:37.042Z,6.83
2018-02-23T13:56:47.031Z,6.89
2018-02-23T13:57:57.039Z,6.89
2018-02-23T13:59:07.050Z,6.59
2018-02-23T14:00:17.040Z,6.57
2018-02-23T14:01:27.025Z,6.38
2018-02-23T14:02:37.006Z,6.56
2018-02-23T14:03:46.993Z,6.47
2018-02-23T14:04:56.962Z,6.93
2018-02-23T14:06:06.173Z,7.05
2018-02-23T14:07:16.152Z,7.39
2018-02-23T14:08:25.875Z,7.31
2018-02-23T14:09:35.571Z,7.37
2018-02-23T14:10:44.770Z,7.33
2018-02-23T14:11:53.712Z,7.11
2018-02-23T14:13:03.428Z,7.19
2018-02-23T14:14:13.136Z,6.71
2018-02-23T14:15:22.319Z,6.43
2018-02-23T14:16:31.770Z,6.39
2018-02-23T14:17:40.711Z,6.12
2018-02-23T14:18:50.428Z,6.09
2018-02-23T14:20:00.157Z,5.92
2018-02-23T14:21:10.139Z,5.69
2018-02-23T14:22:20.125Z,5.76
2018-02-23T14:23:29.881Z,5.7
2018-02-23T14:24:39.882Z,5.91
2018-02-23T14:25:49.593Z,5.99
2018-02-23T14:26:59.569Z,6.12
2018-02-23T14:28:09.031Z,5.87
2018-02-23T14:29:18.741Z,5.84
2018-02-23T14:30:28.465Z,6.02
2018-02-23T14:31:38.508Z,5.88
2018-02-23T14:32:48.506Z,5.97
2018-02-23T14:33:58.224Z,6.15
2018-02-23T14:35:07.963Z,6.09
2018-02-23T14:36:17.940Z,5.95
2018-02-23T14:37:27.395Z,5.77
2018-02-23T14:38:37.167Z,5.73
2018-02-23T14:39:46.618Z,5.77
2018-02-23T14:40:56.599Z,5.31
2018-02-23T14:42:06.352Z,5.19
2018-02-23T14:43:16.324Z,5.2
2018-02-23T14:44:26.306Z,5.31
2018-02-23T14:45:36.011Z,4.89
2018-02-23T14:46:45.462Z,5.04
2018-02-23T14:47:55.178Z,5.15
2018-02-23T14:49:05.282Z,5.41
2018-02-23T14:50:14.990Z,5.64
2018-02-23T14:51:24.460Z,5.8
2018-02-23T14:52:33.918Z,5.67
2018-02-23T14:53:43.639Z,5.79
2018-02-23T14:54:53.350Z,5.72
2018-02-23T14:56:02.573Z,5.67
2018-02-23T14:57:12.565Z,5.67
2018-02-23T14:58:22.552Z,5.51
2018-02-23T14:59:32.260Z,5.58
2018-02-23T15:00:41.960Z,5.58
2018-02-23T15:01:51.925Z,5.36
2018-02-23T15:03:01.642Z,5.34
2018-02-23T15:04:11.626Z,5.47
2018-02-23T15:05:21.360Z,5.25
2018-02-23T15:06:31.071Z,4.89
2018-02-23T15:07:41.037Z,4.52
2018-02-23T15:08:51.021Z,4.34
2018-02-23T15:10:00.981Z,4.52
2018-02-23T15:11:10.174Z,4.48
2018-02-23T15:12:19.375Z,4.6
2018-02-23T15:13:29.377Z,4.7